sensor_id;sensor_type;location;lat;lon;timestamp;P1;durP1;ratioP1;P2;durP2;ratioP2
21330;SDS011;10824;51.632;4.950;2023-06-14T00:01:58;2.50;;;1.17;;
21330;SDS011;10824;51.632;4.950;2023-06-14T00:04:25;1.88;;;1.20;;
21330;SDS011;10824;51.632;4.950;2023-06-14T00:06:53;3.85;;;2.03;;
21330;SDS011;10824;51.632;4.950;2023-06-14T00:09:20;2.97;;;1.40;;
21330;SDS011;10824;51.632;4.950;2023-06-14T00:11:47;3.58;;;1.35;;
21330;SDS011;10824;51.632;4.950;2023-06-14T00:14:14;4.00;;;1.23;;
21330;SDS011;10824;51.632;4.950;2023-06-14T00:16:42;4.13;;;1.55;;
21330;SDS011;10824;51.632;4.950;2023-06-14T00:19:09;3.95;;;1.30;;
21330;SDS011;10824;51.632;4.950;2023-06-14T00:21:37;3.20;;;1.33;;
21330;SDS011;10824;51.632;4.950;2023-06-14T00:24:07;2.22;;;1.00;;
21330;SDS011;10824;51.632;4.950;2023-06-14T00:26:35;3.72;;;1.88;;
21330;SDS011;10824;51.632;4.950;2023-06-14T00:29:02;3.58;;;1.42;;
21330;SDS011;10824;51.632;4.950;2023-06-14T00:31:29;3.50;;;1.30;;
21330;SDS011;10824;51.632;4.950;2023-06-14T00:33:57;4.10;;;1.48;;
21330;SDS011;10824;51.632;4.950;2023-06-14T00:36:25;2.85;;;1.40;;
21330;SDS011;10824;51.632;4.950;2023-06-14T00:38:53;3.35;;;1.10;;
21330;SDS011;10824;51.632;4.950;2023-06-14T00:41:21;2.83;;;1.20;;
21330;SDS011;10824;51.632;4.950;2023-06-14T00:43:48;2.42;;;1.27;;
21330;SDS011;10824;51.632;4.950;2023-06-14T00:46:15;3.70;;;1.45;;
21330;SDS011;10824;51.632;4.950;2023-06-14T00:48:42;3.33;;;1.65;;
21330;SDS011;10824;51.632;4.950;2023-06-14T00:51:09;2.17;;;1.10;;
21330;SDS011;10824;51.632;4.950;2023-06-14T00:53:37;5.13;;;1.77;;
21330;SDS011;10824;51.632;4.950;2023-06-14T00:56:06;3.55;;;1.27;;
21330;SDS011;10824;51.632;4.950;2023-06-14T00:58:33;2.95;;;1.58;;
21330;SDS011;10824;51.632;4.950;2023-06-14T01:01:01;6.20;;;1.30;;
21330;SDS011;10824;51.632;4.950;2023-06-14T01:03:29;2.22;;;1.05;;
21330;SDS011;10824;51.632;4.950;2023-06-14T01:09:08;3.90;;;1.45;;
21330;SDS011;10824;51.632;4.950;2023-06-14T01:11:59;3.53;;;1.20;;
21330;SDS011;10824;51.632;4.950;2023-06-14T01:14:33;4.60;;;1.48;;
21330;SDS011;10824;51.632;4.950;2023-06-14T01:17:01;4.82;;;1.20;;
21330;SDS011;10824;51.632;4.950;2023-06-14T01:19:29;2.80;;;1.40;;
21330;SDS011;10824;51.632;4.950;2023-06-14T01:21:59;4.18;;;1.23;;
21330;SDS011;10824;51.632;4.950;2023-06-14T01:24:27;2.53;;;1.25;;
21330;SDS011;10824;51.632;4.950;2023-06-14T01:27:00;3.25;;;1.30;;
21330;SDS011;10824;51.632;4.950;2023-06-14T01:29:29;3.35;;;1.17;;
21330;SDS011;10824;51.632;4.950;2023-06-14T01:31:59;2.00;;;1.08;;
21330;SDS011;10824;51.632;4.950;2023-06-14T01:34:29;5.85;;;2.42;;
21330;SDS011;10824;51.632;4.950;2023-06-14T01:36:59;3.83;;;1.95;;
21330;SDS011;10824;51.632;4.950;2023-06-14T01:39:28;2.33;;;1.20;;
21330;SDS011;10824;51.632;4.950;2023-06-14T01:41:55;2.58;;;1.25;;
21330;SDS011;10824;51.632;4.950;2023-06-14T01:44:24;2.60;;;1.17;;
21330;SDS011;10824;51.632;4.950;2023-06-14T01:46:52;4.38;;;1.38;;
21330;SDS011;10824;51.632;4.950;2023-06-14T01:49:21;2.28;;;1.20;;
21330;SDS011;10824;51.632;4.950;2023-06-14T01:51:48;2.58;;;1.30;;
21330;SDS011;10824;51.632;4.950;2023-06-14T01:54:15;4.57;;;1.42;;
21330;SDS011;10824;51.632;4.950;2023-06-14T01:56:42;3.00;;;1.13;;
21330;SDS011;10824;51.632;4.950;2023-06-14T01:59:10;3.88;;;1.15;;
21330;SDS011;10824;51.632;4.950;2023-06-14T02:01:37;2.20;;;1.23;;
21330;SDS011;10824;51.632;4.950;2023-06-14T02:04:04;2.22;;;1.23;;
21330;SDS011;10824;51.632;4.950;2023-06-14T02:06:31;4.93;;;1.00;;
21330;SDS011;10824;51.632;4.950;2023-06-14T02:08:58;5.85;;;2.03;;
21330;SDS011;10824;51.632;4.950;2023-06-14T02:11:27;2.88;;;0.95;;
21330;SDS011;10824;51.632;4.950;2023-06-14T02:13:55;7.05;;;1.30;;
21330;SDS011;10824;51.632;4.950;2023-06-14T02:16:22;3.03;;;1.00;;
21330;SDS011;10824;51.632;4.950;2023-06-14T02:18:51;4.40;;;1.50;;
21330;SDS011;10824;51.632;4.950;2023-06-14T02:21:19;3.40;;;1.27;;
21330;SDS011;10824;51.632;4.950;2023-06-14T02:23:46;3.05;;;0.90;;
21330;SDS011;10824;51.632;4.950;2023-06-14T02:26:13;3.85;;;1.38;;
21330;SDS011;10824;51.632;4.950;2023-06-14T02:28:40;4.80;;;1.20;;
21330;SDS011;10824;51.632;4.950;2023-06-14T02:31:08;3.25;;;1.65;;
21330;SDS011;10824;51.632;4.950;2023-06-14T02:33:35;3.72;;;1.30;;
21330;SDS011;10824;51.632;4.950;2023-06-14T02:36:05;2.88;;;1.25;;
21330;SDS011;10824;51.632;4.950;2023-06-14T02:38:34;3.40;;;1.55;;
21330;SDS011;10824;51.632;4.950;2023-06-14T02:41:01;3.35;;;1.25;;
21330;SDS011;10824;51.632;4.950;2023-06-14T02:43:30;2.80;;;1.30;;
21330;SDS011;10824;51.632;4.950;2023-06-14T02:46:00;2.55;;;1.30;;
21330;SDS011;10824;51.632;4.950;2023-06-14T02:48:29;3.47;;;1.27;;
21330;SDS011;10824;51.632;4.950;2023-06-14T02:50:56;3.40;;;1.13;;
21330;SDS011;10824;51.632;4.950;2023-06-14T02:53:26;2.95;;;1.42;;
21330;SDS011;10824;51.632;4.950;2023-06-14T02:55:53;2.60;;;1.90;;
21330;SDS011;10824;51.632;4.950;2023-06-14T02:58:22;2.20;;;1.23;;
21330;SDS011;10824;51.632;4.950;2023-06-14T03:00:59;2.38;;;1.40;;
21330;SDS011;10824;51.632;4.950;2023-06-14T03:03:29;4.93;;;1.65;;
21330;SDS011;10824;51.632;4.950;2023-06-14T03:05:58;2.15;;;1.10;;
21330;SDS011;10824;51.632;4.950;2023-06-14T03:08:35;3.10;;;1.23;;
21330;SDS011;10824;51.632;4.950;2023-06-14T03:11:13;1.38;;;0.90;;
21330;SDS011;10824;51.632;4.950;2023-06-14T03:13:50;3.20;;;1.42;;
21330;SDS011;10824;51.632;4.950;2023-06-14T03:16:24;4.22;;;1.20;;
21330;SDS011;10824;51.632;4.950;2023-06-14T03:18:51;3.10;;;1.55;;
21330;SDS011;10824;51.632;4.950;2023-06-14T03:21:19;5.80;;;1.70;;
21330;SDS011;10824;51.632;4.950;2023-06-14T03:23:48;3.88;;;1.58;;
21330;SDS011;10824;51.632;4.950;2023-06-14T03:26:15;5.40;;;1.10;;
21330;SDS011;10824;51.632;4.950;2023-06-14T03:28:46;4.72;;;1.33;;
21330;SDS011;10824;51.632;4.950;2023-06-14T03:31:17;3.20;;;1.20;;
21330;SDS011;10824;51.632;4.950;2023-06-14T03:33:47;2.88;;;1.38;;
21330;SDS011;10824;51.632;4.950;2023-06-14T03:36:14;9.20;;;1.20;;
21330;SDS011;10824;51.632;4.950;2023-06-14T03:38:41;4.38;;;1.50;;
21330;SDS011;10824;51.632;4.950;2023-06-14T03:41:09;4.13;;;1.70;;
21330;SDS011;10824;51.632;4.950;2023-06-14T03:43:37;3.38;;;1.55;;
21330;SDS011;10824;51.632;4.950;2023-06-14T03:46:04;1.85;;;1.00;;
21330;SDS011;10824;51.632;4.950;2023-06-14T03:48:33;7.30;;;1.40;;
21330;SDS011;10824;51.632;4.950;2023-06-14T03:51:01;6.65;;;1.55;;
21330;SDS011;10824;51.632;4.950;2023-06-14T03:53:29;4.28;;;1.50;;
21330;SDS011;10824;51.632;4.950;2023-06-14T03:55:57;5.78;;;1.55;;
21330;SDS011;10824;51.632;4.950;2023-06-14T03:58:35;3.35;;;1.35;;
21330;SDS011;10824;51.632;4.950;2023-06-14T04:01:07;6.03;;;1.40;;
21330;SDS011;10824;51.632;4.950;2023-06-14T04:03:34;1.75;;;1.25;;
21330;SDS011;10824;51.632;4.950;2023-06-14T04:06:03;5.95;;;1.70;;
21330;SDS011;10824;51.632;4.950;2023-06-14T04:08:33;2.08;;;1.15;;
21330;SDS011;10824;51.632;4.950;2023-06-14T04:11:01;2.78;;;1.50;;
21330;SDS011;10824;51.632;4.950;2023-06-14T04:13:28;3.08;;;1.55;;
21330;SDS011;10824;51.632;4.950;2023-06-14T04:15:55;3.90;;;1.45;;
21330;SDS011;10824;51.632;4.950;2023-06-14T04:18:32;3.25;;;1.52;;
21330;SDS011;10824;51.632;4.950;2023-06-14T04:20:59;2.65;;;1.25;;
21330;SDS011;10824;51.632;4.950;2023-06-14T04:23:28;3.05;;;1.60;;
21330;SDS011;10824;51.632;4.950;2023-06-14T04:25:57;2.83;;;1.60;;
21330;SDS011;10824;51.632;4.950;2023-06-14T04:28:29;7.85;;;1.85;;
21330;SDS011;10824;51.632;4.950;2023-06-14T04:30:58;11.25;;;4.22;;
21330;SDS011;10824;51.632;4.950;2023-06-14T04:33:30;4.47;;;2.10;;
21330;SDS011;10824;51.632;4.950;2023-06-14T04:35:58;4.75;;;1.95;;
21330;SDS011;10824;51.632;4.950;2023-06-14T04:38:26;2.63;;;1.48;;
21330;SDS011;10824;51.632;4.950;2023-06-14T04:40:56;3.33;;;1.33;;
21330;SDS011;10824;51.632;4.950;2023-06-14T04:43:23;2.97;;;1.50;;
21330;SDS011;10824;51.632;4.950;2023-06-14T04:45:54;2.63;;;1.50;;
21330;SDS011;10824;51.632;4.950;2023-06-14T04:48:24;5.57;;;2.08;;
21330;SDS011;10824;51.632;4.950;2023-06-14T04:50:53;3.05;;;1.67;;
21330;SDS011;10824;51.632;4.950;2023-06-14T04:53:20;9.88;;;3.70;;
21330;SDS011;10824;51.632;4.950;2023-06-14T04:58:20;3.33;;;1.25;;
21330;SDS011;10824;51.632;4.950;2023-06-14T05:00:47;4.22;;;1.40;;
21330;SDS011;10824;51.632;4.950;2023-06-14T05:03:14;2.80;;;1.20;;
21330;SDS011;10824;51.632;4.950;2023-06-14T05:05:42;5.18;;;1.40;;
21330;SDS011;10824;51.632;4.950;2023-06-14T05:08:10;5.78;;;1.33;;
21330;SDS011;10824;51.632;4.950;2023-06-14T05:10:38;3.08;;;1.45;;
21330;SDS011;10824;51.632;4.950;2023-06-14T05:13:05;2.50;;;1.02;;
21330;SDS011;10824;51.632;4.950;2023-06-14T05:15:32;3.22;;;1.23;;
21330;SDS011;10824;51.632;4.950;2023-06-14T05:17:59;2.72;;;1.38;;
21330;SDS011;10824;51.632;4.950;2023-06-14T05:20:27;6.90;;;1.48;;
21330;SDS011;10824;51.632;4.950;2023-06-14T05:22:54;5.18;;;1.13;;
21330;SDS011;10824;51.632;4.950;2023-06-14T05:25:23;3.70;;;1.35;;
21330;SDS011;10824;51.632;4.950;2023-06-14T05:27:50;3.25;;;1.33;;
21330;SDS011;10824;51.632;4.950;2023-06-14T05:30:18;4.90;;;1.13;;
21330;SDS011;10824;51.632;4.950;2023-06-14T05:32:45;2.83;;;1.27;;
21330;SDS011;10824;51.632;4.950;2023-06-14T05:35:12;8.65;;;2.85;;
21330;SDS011;10824;51.632;4.950;2023-06-14T05:37:40;5.88;;;1.65;;
21330;SDS011;10824;51.632;4.950;2023-06-14T05:40:08;3.47;;;1.08;;
21330;SDS011;10824;51.632;4.950;2023-06-14T05:42:35;3.42;;;1.00;;
21330;SDS011;10824;51.632;4.950;2023-06-14T05:45:02;3.00;;;1.63;;
21330;SDS011;10824;51.632;4.950;2023-06-14T05:47:29;4.57;;;1.77;;
21330;SDS011;10824;51.632;4.950;2023-06-14T05:49:57;7.15;;;1.27;;
21330;SDS011;10824;51.632;4.950;2023-06-14T05:52:25;3.65;;;1.15;;
21330;SDS011;10824;51.632;4.950;2023-06-14T05:54:54;3.03;;;1.40;;
21330;SDS011;10824;51.632;4.950;2023-06-14T05:57:21;1.90;;;1.17;;
21330;SDS011;10824;51.632;4.950;2023-06-14T05:59:51;3.47;;;1.27;;
21330;SDS011;10824;51.632;4.950;2023-06-14T06:02:18;4.13;;;1.60;;
21330;SDS011;10824;51.632;4.950;2023-06-14T06:04:45;2.65;;;1.38;;
21330;SDS011;10824;51.632;4.950;2023-06-14T06:07:12;6.68;;;1.35;;
21330;SDS011;10824;51.632;4.950;2023-06-14T06:09:39;2.30;;;1.10;;
21330;SDS011;10824;51.632;4.950;2023-06-14T06:12:07;3.40;;;1.20;;
21330;SDS011;10824;51.632;4.950;2023-06-14T06:14:34;2.75;;;1.60;;
21330;SDS011;10824;51.632;4.950;2023-06-14T06:17:01;2.00;;;1.00;;
21330;SDS011;10824;51.632;4.950;2023-06-14T06:19:28;5.88;;;1.70;;
21330;SDS011;10824;51.632;4.950;2023-06-14T06:21:56;5.90;;;1.80;;
21330;SDS011;10824;51.632;4.950;2023-06-14T06:24:23;4.30;;;1.58;;
21330;SDS011;10824;51.632;4.950;2023-06-14T06:26:50;5.03;;;1.77;;
21330;SDS011;10824;51.632;4.950;2023-06-14T06:29:17;2.40;;;1.23;;
21330;SDS011;10824;51.632;4.950;2023-06-14T06:31:47;13.30;;;1.90;;
21330;SDS011;10824;51.632;4.950;2023-06-14T06:34:14;4.88;;;1.70;;
21330;SDS011;10824;51.632;4.950;2023-06-14T06:36:43;2.10;;;1.25;;
21330;SDS011;10824;51.632;4.950;2023-06-14T06:39:10;3.92;;;1.23;;
21330;SDS011;10824;51.632;4.950;2023-06-14T06:41:38;3.88;;;1.80;;
21330;SDS011;10824;51.632;4.950;2023-06-14T06:44:08;3.10;;;1.30;;
21330;SDS011;10824;51.632;4.950;2023-06-14T06:46:38;4.57;;;1.73;;
21330;SDS011;10824;51.632;4.950;2023-06-14T06:49:07;4.50;;;1.60;;
21330;SDS011;10824;51.632;4.950;2023-06-14T06:51:35;4.53;;;1.52;;
21330;SDS011;10824;51.632;4.950;2023-06-14T06:54:05;4.15;;;1.15;;
21330;SDS011;10824;51.632;4.950;2023-06-14T06:56:32;2.22;;;1.40;;
21330;SDS011;10824;51.632;4.950;2023-06-14T06:59:00;3.35;;;1.23;;
21330;SDS011;10824;51.632;4.950;2023-06-14T07:01:29;7.20;;;1.55;;
21330;SDS011;10824;51.632;4.950;2023-06-14T07:03:57;5.35;;;1.38;;
21330;SDS011;10824;51.632;4.950;2023-06-14T07:06:24;4.05;;;1.38;;
21330;SDS011;10824;51.632;4.950;2023-06-14T07:08:53;5.63;;;1.35;;
21330;SDS011;10824;51.632;4.950;2023-06-14T07:11:21;2.67;;;1.13;;
21330;SDS011;10824;51.632;4.950;2023-06-14T07:13:48;5.22;;;1.88;;
21330;SDS011;10824;51.632;4.950;2023-06-14T07:16:15;2.47;;;1.23;;
21330;SDS011;10824;51.632;4.950;2023-06-14T07:18:42;2.03;;;1.42;;
21330;SDS011;10824;51.632;4.950;2023-06-14T07:21:10;2.13;;;1.20;;
21330;SDS011;10824;51.632;4.950;2023-06-14T07:23:37;4.30;;;1.63;;
21330;SDS011;10824;51.632;4.950;2023-06-14T07:26:05;5.97;;;1.55;;
21330;SDS011;10824;51.632;4.950;2023-06-14T07:31:55;2.30;;;1.23;;
21330;SDS011;10824;51.632;4.950;2023-06-14T07:34:22;5.88;;;1.15;;
21330;SDS011;10824;51.632;4.950;2023-06-14T07:36:50;5.43;;;1.90;;
21330;SDS011;10824;51.632;4.950;2023-06-14T07:42:20;8.60;;;1.90;;
21330;SDS011;10824;51.632;4.950;2023-06-14T07:44:47;3.72;;;1.35;;
21330;SDS011;10824;51.632;4.950;2023-06-14T07:47:14;6.18;;;2.00;;
21330;SDS011;10824;51.632;4.950;2023-06-14T07:49:42;9.20;;;1.60;;
21330;SDS011;10824;51.632;4.950;2023-06-14T07:52:10;4.90;;;1.48;;
21330;SDS011;10824;51.632;4.950;2023-06-14T07:54:37;2.65;;;1.48;;
21330;SDS011;10824;51.632;4.950;2023-06-14T07:57:05;4.55;;;1.33;;
21330;SDS011;10824;51.632;4.950;2023-06-14T07:59:32;3.97;;;1.27;;
21330;SDS011;10824;51.632;4.950;2023-06-14T08:02:01;2.80;;;1.10;;
21330;SDS011;10824;51.632;4.950;2023-06-14T08:04:29;4.47;;;1.35;;
21330;SDS011;10824;51.632;4.950;2023-06-14T08:06:57;2.92;;;1.08;;
21330;SDS011;10824;51.632;4.950;2023-06-14T08:09:25;2.13;;;1.30;;
21330;SDS011;10824;51.632;4.950;2023-06-14T08:11:55;4.18;;;1.10;;
21330;SDS011;10824;51.632;4.950;2023-06-14T08:15:10;3.40;;;1.27;;
21330;SDS011;10824;51.632;4.950;2023-06-14T08:17:41;3.50;;;1.27;;
21330;SDS011;10824;51.632;4.950;2023-06-14T08:20:10;7.60;;;1.00;;
21330;SDS011;10824;51.632;4.950;2023-06-14T08:22:38;5.68;;;1.50;;
21330;SDS011;10824;51.632;4.950;2023-06-14T08:25:08;4.78;;;1.35;;
21330;SDS011;10824;51.632;4.950;2023-06-14T08:27:37;4.32;;;1.60;;
21330;SDS011;10824;51.632;4.950;2023-06-14T08:30:06;2.33;;;1.38;;
21330;SDS011;10824;51.632;4.950;2023-06-14T08:32:34;8.35;;;1.70;;
21330;SDS011;10824;51.632;4.950;2023-06-14T08:35:02;5.35;;;1.33;;
21330;SDS011;10824;51.632;4.950;2023-06-14T08:37:31;5.85;;;1.20;;
21330;SDS011;10824;51.632;4.950;2023-06-14T08:40:00;5.28;;;1.33;;
21330;SDS011;10824;51.632;4.950;2023-06-14T08:42:29;3.85;;;1.42;;
21330;SDS011;10824;51.632;4.950;2023-06-14T08:44:58;2.83;;;1.10;;
21330;SDS011;10824;51.632;4.950;2023-06-14T08:47:26;2.53;;;1.17;;
21330;SDS011;10824;51.632;4.950;2023-06-14T08:49:55;2.63;;;0.95;;
21330;SDS011;10824;51.632;4.950;2023-06-14T08:52:25;2.17;;;0.93;;
21330;SDS011;10824;51.632;4.950;2023-06-14T08:54:56;2.85;;;1.30;;
21330;SDS011;10824;51.632;4.950;2023-06-14T08:57:26;6.57;;;1.10;;
21330;SDS011;10824;51.632;4.950;2023-06-14T08:59:57;3.58;;;1.00;;
21330;SDS011;10824;51.632;4.950;2023-06-14T09:02:28;3.63;;;1.10;;
21330;SDS011;10824;51.632;4.950;2023-06-14T09:04:55;4.30;;;0.88;;
21330;SDS011;10824;51.632;4.950;2023-06-14T09:10:06;2.47;;;1.00;;
21330;SDS011;10824;51.632;4.950;2023-06-14T09:12:43;1.70;;;1.05;;
21330;SDS011;10824;51.632;4.950;2023-06-14T09:15:10;3.65;;;1.08;;
21330;SDS011;10824;51.632;4.950;2023-06-14T09:17:38;1.77;;;1.00;;
21330;SDS011;10824;51.632;4.950;2023-06-14T09:20:06;3.85;;;1.10;;
21330;SDS011;10824;51.632;4.950;2023-06-14T09:22:40;3.72;;;1.40;;
21330;SDS011;10824;51.632;4.950;2023-06-14T09:25:08;5.70;;;0.88;;
21330;SDS011;10824;51.632;4.950;2023-06-14T09:27:51;2.35;;;0.90;;
21330;SDS011;10824;51.632;4.950;2023-06-14T09:30:20;1.58;;;1.10;;
21330;SDS011;10824;51.632;4.950;2023-06-14T09:32:47;2.42;;;0.70;;
21330;SDS011;10824;51.632;4.950;2023-06-14T09:35:15;3.70;;;1.00;;
21330;SDS011;10824;51.632;4.950;2023-06-14T09:37:44;1.88;;;1.00;;
21330;SDS011;10824;51.632;4.950;2023-06-14T09:40:11;2.85;;;1.00;;
21330;SDS011;10824;51.632;4.950;2023-06-14T09:42:39;4.97;;;1.90;;
21330;SDS011;10824;51.632;4.950;2023-06-14T09:45:07;4.15;;;1.00;;
21330;SDS011;10824;51.632;4.950;2023-06-14T09:47:34;2.00;;;0.65;;
21330;SDS011;10824;51.632;4.950;2023-06-14T09:50:02;6.32;;;2.22;;
21330;SDS011;10824;51.632;4.950;2023-06-14T09:52:29;3.83;;;1.02;;
21330;SDS011;10824;51.632;4.950;2023-06-14T09:54:57;1.20;;;0.80;;
21330;SDS011;10824;51.632;4.950;2023-06-14T09:57:26;2.67;;;0.70;;
21330;SDS011;10824;51.632;4.950;2023-06-14T10:00:00;1.63;;;1.13;;
21330;SDS011;10824;51.632;4.950;2023-06-14T10:02:38;2.03;;;0.80;;
21330;SDS011;10824;51.632;4.950;2023-06-14T10:05:09;2.80;;;1.10;;
21330;SDS011;10824;51.632;4.950;2023-06-14T10:07:44;1.05;;;0.65;;
21330;SDS011;10824;51.632;4.950;2023-06-14T10:10:14;2.53;;;0.50;;
21330;SDS011;10824;51.632;4.950;2023-06-14T10:12:42;3.17;;;0.55;;
21330;SDS011;10824;51.632;4.950;2023-06-14T10:15:10;0.68;;;0.50;;
21330;SDS011;10824;51.632;4.950;2023-06-14T10:17:59;0.88;;;0.57;;
21330;SDS011;10824;51.632;4.950;2023-06-14T10:20:51;3.90;;;0.60;;
21330;SDS011;10824;51.632;4.950;2023-06-14T10:23:22;0.90;;;0.55;;
21330;SDS011;10824;51.632;4.950;2023-06-14T10:25:56;3.35;;;0.52;;
21330;SDS011;10824;51.632;4.950;2023-06-14T10:28:23;2.60;;;0.80;;
21330;SDS011;10824;51.632;4.950;2023-06-14T10:31:12;2.10;;;0.68;;
21330;SDS011;10824;51.632;4.950;2023-06-14T10:39:04;2.25;;;0.45;;
21330;SDS011;10824;51.632;4.950;2023-06-14T10:41:37;3.67;;;1.58;;
21330;SDS011;10824;51.632;4.950;2023-06-14T10:46:40;0.73;;;0.47;;
21330;SDS011;10824;51.632;4.950;2023-06-14T10:49:12;1.60;;;0.82;;
21330;SDS011;10824;51.632;4.950;2023-06-14T10:51:44;0.63;;;0.40;;
21330;SDS011;10824;51.632;4.950;2023-06-14T10:54:16;0.80;;;0.40;;
21330;SDS011;10824;51.632;4.950;2023-06-14T10:56:50;0.50;;;0.50;;
21330;SDS011;10824;51.632;4.950;2023-06-14T10:59:19;0.68;;;0.43;;
21330;SDS011;10824;51.632;4.950;2023-06-14T11:04:51;2.22;;;0.45;;
21330;SDS011;10824;51.632;4.950;2023-06-14T11:12:59;0.63;;;0.45;;
21330;SDS011;10824;51.632;4.950;2023-06-14T11:15:30;1.98;;;0.52;;
21330;SDS011;10824;51.632;4.950;2023-06-14T11:18:05;1.75;;;0.90;;
21330;SDS011;10824;51.632;4.950;2023-06-14T11:20:34;1.30;;;0.60;;
21330;SDS011;10824;51.632;4.950;2023-06-14T11:23:03;1.30;;;0.60;;
21330;SDS011;10824;51.632;4.950;2023-06-14T11:25:30;4.30;;;0.43;;
21330;SDS011;10824;51.632;4.950;2023-06-14T11:27:57;4.13;;;0.65;;
21330;SDS011;10824;51.632;4.950;2023-06-14T11:30:26;1.33;;;0.70;;
21330;SDS011;10824;51.632;4.950;2023-06-14T11:32:54;1.00;;;0.57;;
21330;SDS011;10824;51.632;4.950;2023-06-14T11:35:25;0.88;;;0.60;;
21330;SDS011;10824;51.632;4.950;2023-06-14T11:37:57;2.35;;;0.50;;
21330;SDS011;10824;51.632;4.950;2023-06-14T11:40:25;0.68;;;0.50;;
21330;SDS011;10824;51.632;4.950;2023-06-14T11:43:00;5.97;;;0.60;;
21330;SDS011;10824;51.632;4.950;2023-06-14T11:45:29;1.70;;;0.40;;
21330;SDS011;10824;51.632;4.950;2023-06-14T11:47:57;3.03;;;0.55;;
21330;SDS011;10824;51.632;4.950;2023-06-14T11:50:26;2.00;;;0.55;;
21330;SDS011;10824;51.632;4.950;2023-06-14T11:52:58;0.63;;;0.50;;
21330;SDS011;10824;51.632;4.950;2023-06-14T11:55:37;2.35;;;0.60;;
21330;SDS011;10824;51.632;4.950;2023-06-14T11:58:07;1.00;;;0.50;;
21330;SDS011;10824;51.632;4.950;2023-06-14T12:00:36;0.40;;;0.40;;
21330;SDS011;10824;51.632;4.950;2023-06-14T12:03:06;1.73;;;0.50;;
21330;SDS011;10824;51.632;4.950;2023-06-14T12:05:33;1.00;;;0.43;;
21330;SDS011;10824;51.632;4.950;2023-06-14T12:08:04;0.70;;;0.50;;
21330;SDS011;10824;51.632;4.950;2023-06-14T12:10:39;2.55;;;1.05;;
21330;SDS011;10824;51.632;4.950;2023-06-14T12:13:10;2.53;;;0.57;;
21330;SDS011;10824;51.632;4.950;2023-06-14T12:15:40;1.33;;;0.50;;
21330;SDS011;10824;51.632;4.950;2023-06-14T12:18:07;1.15;;;0.40;;
21330;SDS011;10824;51.632;4.950;2023-06-14T12:20:37;6.00;;;0.70;;
21330;SDS011;10824;51.632;4.950;2023-06-14T12:23:06;1.27;;;0.55;;
21330;SDS011;10824;51.632;4.950;2023-06-14T12:25:36;3.75;;;0.98;;
21330;SDS011;10824;51.632;4.950;2023-06-14T12:28:05;5.53;;;0.52;;
21330;SDS011;10824;51.632;4.950;2023-06-14T12:30:37;0.55;;;0.30;;
21330;SDS011;10824;51.632;4.950;2023-06-14T12:33:04;2.55;;;0.50;;
21330;SDS011;10824;51.632;4.950;2023-06-14T12:35:33;0.47;;;0.45;;
21330;SDS011;10824;51.632;4.950;2023-06-14T12:38:00;1.45;;;0.60;;
21330;SDS011;10824;51.632;4.950;2023-06-14T12:40:28;3.13;;;0.80;;
21330;SDS011;10824;51.632;4.950;2023-06-14T12:42:56;2.85;;;0.65;;
21330;SDS011;10824;51.632;4.950;2023-06-14T12:45:24;1.15;;;0.63;;
21330;SDS011;10824;51.632;4.950;2023-06-14T12:47:51;4.15;;;1.63;;
21330;SDS011;10824;51.632;4.950;2023-06-14T12:50:18;2.28;;;0.60;;
21330;SDS011;10824;51.632;4.950;2023-06-14T12:52:50;1.23;;;0.50;;
21330;SDS011;10824;51.632;4.950;2023-06-14T12:55:17;1.27;;;0.40;;
21330;SDS011;10824;51.632;4.950;2023-06-14T12:57:45;1.05;;;0.50;;
21330;SDS011;10824;51.632;4.950;2023-06-14T13:00:12;3.08;;;0.40;;
21330;SDS011;10824;51.632;4.950;2023-06-14T13:02:41;0.75;;;0.57;;
21330;SDS011;10824;51.632;4.950;2023-06-14T13:05:09;1.25;;;0.70;;
21330;SDS011;10824;51.632;4.950;2023-06-14T13:07:36;0.95;;;0.50;;
21330;SDS011;10824;51.632;4.950;2023-06-14T13:10:04;1.33;;;0.70;;
21330;SDS011;10824;51.632;4.950;2023-06-14T13:12:32;1.85;;;0.60;;
21330;SDS011;10824;51.632;4.950;2023-06-14T13:14:59;0.77;;;0.35;;
21330;SDS011;10824;51.632;4.950;2023-06-14T13:17:27;4.53;;;0.55;;
21330;SDS011;10824;51.632;4.950;2023-06-14T13:19:54;5.68;;;1.30;;
21330;SDS011;10824;51.632;4.950;2023-06-14T13:22:21;1.30;;;0.60;;
21330;SDS011;10824;51.632;4.950;2023-06-14T13:24:48;3.10;;;0.50;;
21330;SDS011;10824;51.632;4.950;2023-06-14T13:27:16;1.30;;;0.73;;
21330;SDS011;10824;51.632;4.950;2023-06-14T13:29:43;1.05;;;0.40;;
21330;SDS011;10824;51.632;4.950;2023-06-14T13:32:10;0.70;;;0.70;;
21330;SDS011;10824;51.632;4.950;2023-06-14T13:34:37;0.60;;;0.45;;
21330;SDS011;10824;51.632;4.950;2023-06-14T13:37:04;1.20;;;0.40;;
21330;SDS011;10824;51.632;4.950;2023-06-14T13:39:32;2.65;;;0.73;;
21330;SDS011;10824;51.632;4.950;2023-06-14T13:41:59;0.73;;;0.50;;
21330;SDS011;10824;51.632;4.950;2023-06-14T13:44:27;0.82;;;0.63;;
21330;SDS011;10824;51.632;4.950;2023-06-14T13:46:54;0.88;;;0.52;;
21330;SDS011;10824;51.632;4.950;2023-06-14T13:49:21;0.85;;;0.40;;
21330;SDS011;10824;51.632;4.950;2023-06-14T13:51:48;0.50;;;0.40;;
21330;SDS011;10824;51.632;4.950;2023-06-14T13:54:18;1.38;;;0.57;;
21330;SDS011;10824;51.632;4.950;2023-06-14T13:56:47;1.23;;;0.75;;
21330;SDS011;10824;51.632;4.950;2023-06-14T13:59:14;0.82;;;0.43;;
21330;SDS011;10824;51.632;4.950;2023-06-14T14:01:42;3.55;;;0.80;;
21330;SDS011;10824;51.632;4.950;2023-06-14T14:04:09;2.45;;;0.50;;
21330;SDS011;10824;51.632;4.950;2023-06-14T14:06:37;2.38;;;0.75;;
21330;SDS011;10824;51.632;4.950;2023-06-14T14:09:05;2.58;;;0.60;;
21330;SDS011;10824;51.632;4.950;2023-06-14T14:11:32;0.75;;;0.50;;
21330;SDS011;10824;51.632;4.950;2023-06-14T14:14:00;0.50;;;0.40;;
21330;SDS011;10824;51.632;4.950;2023-06-14T14:16:28;2.97;;;0.50;;
21330;SDS011;10824;51.632;4.950;2023-06-14T14:18:57;2.20;;;0.43;;
21330;SDS011;10824;51.632;4.950;2023-06-14T14:21:24;2.00;;;0.43;;
21330;SDS011;10824;51.632;4.950;2023-06-14T14:23:51;1.67;;;0.93;;
21330;SDS011;10824;51.632;4.950;2023-06-14T14:26:19;4.57;;;0.50;;
21330;SDS011;10824;51.632;4.950;2023-06-14T14:28:46;2.80;;;0.70;;
21330;SDS011;10824;51.632;4.950;2023-06-14T14:31:14;0.98;;;0.70;;
21330;SDS011;10824;51.632;4.950;2023-06-14T14:33:41;2.40;;;0.82;;
21330;SDS011;10824;51.632;4.950;2023-06-14T14:36:08;0.63;;;0.40;;
21330;SDS011;10824;51.632;4.950;2023-06-14T14:38:37;3.25;;;0.60;;
21330;SDS011;10824;51.632;4.950;2023-06-14T14:41:04;0.82;;;0.70;;
21330;SDS011;10824;51.632;4.950;2023-06-14T14:43:31;1.25;;;0.50;;
21330;SDS011;10824;51.632;4.950;2023-06-14T14:45:58;4.45;;;0.60;;
21330;SDS011;10824;51.632;4.950;2023-06-14T14:48:25;2.30;;;0.55;;
21330;SDS011;10824;51.632;4.950;2023-06-14T14:50:52;0.98;;;0.50;;
21330;SDS011;10824;51.632;4.950;2023-06-14T14:53:20;1.58;;;0.60;;
21330;SDS011;10824;51.632;4.950;2023-06-14T14:55:47;2.25;;;0.40;;
21330;SDS011;10824;51.632;4.950;2023-06-14T14:58:16;1.55;;;0.50;;
21330;SDS011;10824;51.632;4.950;2023-06-14T15:00:44;0.90;;;0.60;;
21330;SDS011;10824;51.632;4.950;2023-06-14T15:03:12;2.08;;;0.40;;
21330;SDS011;10824;51.632;4.950;2023-06-14T15:05:40;2.30;;;0.60;;
21330;SDS011;10824;51.632;4.950;2023-06-14T15:08:07;0.75;;;0.50;;
21330;SDS011;10824;51.632;4.950;2023-06-14T15:13:09;1.05;;;0.73;;
21330;SDS011;10824;51.632;4.950;2023-06-14T15:15:37;2.15;;;1.02;;
21330;SDS011;10824;51.632;4.950;2023-06-14T15:18:04;3.67;;;0.98;;
21330;SDS011;10824;51.632;4.950;2023-06-14T15:20:32;1.35;;;0.90;;
21330;SDS011;10824;51.632;4.950;2023-06-14T15:23:00;5.20;;;0.77;;
21330;SDS011;10824;51.632;4.950;2023-06-14T15:25:27;1.02;;;0.80;;
21330;SDS011;10824;51.632;4.950;2023-06-14T15:27:55;2.08;;;0.50;;
21330;SDS011;10824;51.632;4.950;2023-06-14T15:30:22;1.45;;;0.85;;
21330;SDS011;10824;51.632;4.950;2023-06-14T15:32:49;1.05;;;0.55;;